createdAt,value
2017-12-28T00:01:09.055Z,12.23
2017-12-28T00:03:36.600Z,8.60
2017-12-28T00:06:04.392Z,8.03
2017-12-28T00:08:31.948Z,7.60
2017-12-28T00:10:59.468Z,4.97
2017-12-28T00:13:27.184Z,3.87
2017-12-28T00:15:55.554Z,4.97
2017-12-28T00:18:23.062Z,4.13
2017-12-28T00:20:50.623Z,4.07
2017-12-28T00:23:18.131Z,3.80
2017-12-28T00:25:45.668Z,3.60
2017-12-28T00:28:13.943Z,3.00
2017-12-28T00:30:41.643Z,3.50
2017-12-28T00:33:09.148Z,2.93
2017-12-28T00:35:36.655Z,3.00
2017-12-28T00:38:04.203Z,2.70
2017-12-28T00:40:31.703Z,2.77
2017-12-28T00:43:00.019Z,2.70
2017-12-28T00:45:27.531Z,2.20
2017-12-28T00:47:55.268Z,1.70
2017-12-28T00:50:22.781Z,1.93
2017-12-28T00:52:50.292Z,2.20
2017-12-28T00:55:18.612Z,2.47
2017-12-28T00:57:46.133Z,2.90
2017-12-28T01:00:13.688Z,2.40
2017-12-28T01:02:41.196Z,2.63
2017-12-28T01:05:09.524Z,2.70
2017-12-28T01:07:37.033Z,4.17
2017-12-28T01:10:04.580Z,4.47
2017-12-28T01:12:32.091Z,3.97
2017-12-28T01:14:59.668Z,4.23
2017-12-28T01:17:27.936Z,3.93
2017-12-28T01:19:55.499Z,4.37
2017-12-28T01:22:23.007Z,4.80
2017-12-28T01:24:51.281Z,3.60
2017-12-28T01:27:18.831Z,4.43
2017-12-28T01:29:46.344Z,3.93
2017-12-28T01:32:14.670Z,3.23
2017-12-28T01:34:42.959Z,3.53
2017-12-28T01:37:10.508Z,3.60
2017-12-28T01:39:38.023Z,4.23
2017-12-28T01:42:05.568Z,4.10
2017-12-28T01:44:33.103Z,4.93
2017-12-28T01:47:01.411Z,4.10
2017-12-28T01:49:28.912Z,4.10
2017-12-28T01:51:56.464Z,4.07
2017-12-28T01:54:23.975Z,3.47
2017-12-28T01:56:51.481Z,3.47
2017-12-28T01:59:19.792Z,3.03
2017-12-28T02:01:47.309Z,3.30
2017-12-28T02:04:14.857Z,3.53
2017-12-28T02:06:42.355Z,3.13
2017-12-28T02:09:09.898Z,2.57
2017-12-28T02:11:37.399Z,2.27
2017-12-28T02:14:04.963Z,3.23
2017-12-28T02:16:32.490Z,2.23
2017-12-28T02:19:00.017Z,3.33
2017-12-28T02:21:27.575Z,2.60
2017-12-28T02:23:55.166Z,3.03
2017-12-28T02:26:22.723Z,3.30
2017-12-28T02:28:50.230Z,2.33
2017-12-28T02:31:18.539Z,2.70
2017-12-28T02:33:46.055Z,2.50
2017-12-28T02:36:13.600Z,2.07
2017-12-28T02:38:41.144Z,2.27
2017-12-28T02:41:09.409Z,2.10
2017-12-28T02:43:36.944Z,3.10
2017-12-28T02:46:04.476Z,1.87
2017-12-28T02:48:32.032Z,1.90
2017-12-28T02:50:59.540Z,2.90
2017-12-28T02:53:27.051Z,2.33
2017-12-28T02:55:54.600Z,2.20
2017-12-28T02:58:22.105Z,2.20
2017-12-28T03:00:49.659Z,1.97
2017-12-28T03:03:17.167Z,1.93
2017-12-28T03:05:44.713Z,2.40
2017-12-28T03:08:12.223Z,2.57
2017-12-28T03:10:40.541Z,1.93
2017-12-28T03:13:08.049Z,2.87
2017-12-28T03:15:35.679Z,2.20
2017-12-28T03:18:03.201Z,2.90
2017-12-28T03:20:30.714Z,2.77
2017-12-28T03:22:58.259Z,2.70
2017-12-28T03:25:25.772Z,3.50
2017-12-28T03:27:53.319Z,3.67
2017-12-28T03:30:21.589Z,2.63
2017-12-28T03:32:49.137Z,4.30
2017-12-28T03:35:16.649Z,3.90
2017-12-28T03:37:44.959Z,3.70
2017-12-28T03:40:12.472Z,5.10
2017-12-28T03:42:40.032Z,4.60
2017-12-28T03:45:07.541Z,4.37
2017-12-28T03:47:35.055Z,4.17
2017-12-28T03:50:02.591Z,4.50
2017-12-28T03:52:30.871Z,4.27
2017-12-28T03:54:58.424Z,4.20
2017-12-28T03:57:25.935Z,5.07
2017-12-28T03:59:54.243Z,4.47
2017-12-28T04:02:21.751Z,4.40
2017-12-28T04:04:49.298Z,4.40
2017-12-28T04:07:16.806Z,4.70
2017-12-28T04:09:44.322Z,5.10
2017-12-28T04:12:11.864Z,5.00
2017-12-28T04:14:39.371Z,4.27
2017-12-28T04:17:06.915Z,4.50
2017-12-28T04:19:35.265Z,4.40
2017-12-28T04:22:02.780Z,4.30
2017-12-28T04:24:31.047Z,3.27
2017-12-28T04:26:58.603Z,4.53
2017-12-28T04:29:26.112Z,3.97
2017-12-28T04:31:54.387Z,4.13
2017-12-28T04:34:21.927Z,3.97
2017-12-28T04:36:49.438Z,3.73
2017-12-28T04:39:17.091Z,4.10
2017-12-28T04:41:44.608Z,3.60
2017-12-28T04:44:12.153Z,3.07
2017-12-28T04:46:39.666Z,4.27
2017-12-28T04:49:07.219Z,3.27
2017-12-28T04:51:34.820Z,2.97
2017-12-28T04:54:02.327Z,2.90
2017-12-28T04:56:29.875Z,3.37
2017-12-28T04:58:57.387Z,2.97
2017-12-28T05:01:24.931Z,3.20
2017-12-28T05:03:52.432Z,3.50
2017-12-28T05:06:19.984Z,2.30
2017-12-28T05:08:47.494Z,2.60
2017-12-28T05:11:15.815Z,3.03
2017-12-28T05:13:43.355Z,2.83
2017-12-28T05:16:11.624Z,2.87
2017-12-28T05:18:39.159Z,2.90
2017-12-28T05:21:06.666Z,3.20
2017-12-28T05:23:34.210Z,2.77
2017-12-28T05:26:01.717Z,2.40
2017-12-28T05:28:29.252Z,3.27
2017-12-28T05:30:57.526Z,2.10
2017-12-28T05:33:25.063Z,2.23
2017-12-28T05:35:53.343Z,3.43
2017-12-28T05:38:21.663Z,2.77
2017-12-28T05:40:49.172Z,3.80
2017-12-28T05:43:16.801Z,4.17
2017-12-28T05:45:44.343Z,3.20
2017-12-28T05:48:11.848Z,3.20
2017-12-28T05:50:39.392Z,3.70
2017-12-28T05:53:07.671Z,4.07
2017-12-28T05:55:35.212Z,3.73
2017-12-28T05:58:02.720Z,4.50
2017-12-28T06:00:30.267Z,5.40
2017-12-28T06:02:57.772Z,5.20
2017-12-28T06:05:26.097Z,5.10
2017-12-28T06:07:53.627Z,5.10
2017-12-28T06:10:21.916Z,4.37
2017-12-28T06:12:49.487Z,5.87
2017-12-28T06:15:17.009Z,5.50
2017-12-28T06:17:44.552Z,5.60
2017-12-28T06:20:12.828Z,5.50
2017-12-28T06:22:40.377Z,5.13
2017-12-28T06:25:07.909Z,5.23
2017-12-28T06:27:35.519Z,6.03
2017-12-28T06:30:03.412Z,5.97
2017-12-28T06:32:30.967Z,5.67
2017-12-28T06:34:58.496Z,6.17
2017-12-28T06:37:26.042Z,7.13
2017-12-28T06:39:53.579Z,6.27
2017-12-28T06:42:21.091Z,6.17
2017-12-28T06:44:48.631Z,6.30
2017-12-28T06:47:16.149Z,7.20
2017-12-28T06:49:43.747Z,7.97
2017-12-28T06:52:11.255Z,7.87
2017-12-28T06:54:38.827Z,7.37
2017-12-28T06:57:06.343Z,6.63
2017-12-28T06:59:33.876Z,7.10
2017-12-28T07:02:01.428Z,7.87
2017-12-28T07:04:28.988Z,6.17
2017-12-28T07:06:56.500Z,7.80
2017-12-28T07:09:24.445Z,6.93
2017-12-28T07:11:51.999Z,6.73
2017-12-28T07:14:19.564Z,5.80
2017-12-28T07:16:47.108Z,6.47
2017-12-28T07:19:15.396Z,5.60
2017-12-28T07:21:43.728Z,5.40
2017-12-28T07:24:11.243Z,6.10
2017-12-28T07:26:38.796Z,6.20
2017-12-28T07:29:06.353Z,6.80
2017-12-28T07:31:33.901Z,4.60
2017-12-28T07:34:01.473Z,4.90
2017-12-28T07:36:29.255Z,5.27
2017-12-28T07:38:56.799Z,5.17
2017-12-28T07:41:25.071Z,5.67
2017-12-28T07:43:52.628Z,4.90
2017-12-28T07:46:20.139Z,4.63
2017-12-28T07:48:47.669Z,4.60
2017-12-28T07:51:15.219Z,5.60
2017-12-28T07:53:42.732Z,4.20
2017-12-28T07:56:10.289Z,3.87
2017-12-28T07:58:38.558Z,3.67
2017-12-28T08:01:06.107Z,5.13
2017-12-28T08:03:33.616Z,4.20
2017-12-28T08:06:01.163Z,4.30
2017-12-28T08:08:28.675Z,4.17
2017-12-28T08:10:56.227Z,4.70
2017-12-28T08:13:23.728Z,4.90
2017-12-28T08:15:51.241Z,4.70
2017-12-28T08:18:18.778Z,5.63
2017-12-28T08:20:47.051Z,5.23
2017-12-28T08:23:14.596Z,5.00
2017-12-28T08:25:42.103Z,5.17
2017-12-28T08:28:09.643Z,5.50
2017-12-28T08:30:37.601Z,5.20
2017-12-28T08:33:05.140Z,5.57
2017-12-28T08:35:33.415Z,5.67
2017-12-28T08:38:01.001Z,6.90
2017-12-28T08:40:29.298Z,6.40
2017-12-28T08:42:57.580Z,6.80
2017-12-28T08:45:25.919Z,6.00
2017-12-28T08:47:53.443Z,10.00
2017-12-28T08:50:21.755Z,9.93
2017-12-28T08:52:50.138Z,6.30
2017-12-28T08:55:18.443Z,5.00
2017-12-28T08:57:45.962Z,4.67
2017-12-28T09:00:13.572Z,4.90
2017-12-28T09:02:41.072Z,4.47
2017-12-28T09:05:08.673Z,4.80
2017-12-28T09:07:36.236Z,4.93
2017-12-28T09:10:03.773Z,9.13
2017-12-28T09:12:31.323Z,5.03
2017-12-28T09:15:00.244Z,5.57
2017-12-28T09:17:27.799Z,5.60
2017-12-28T09:19:55.315Z,5.03
2017-12-28T09:22:22.933Z,5.67
2017-12-28T09:24:50.863Z,4.77
2017-12-28T09:27:18.386Z,5.57
2017-12-28T09:29:45.959Z,6.90
2017-12-28T09:32:13.474Z,6.70
2017-12-28T09:34:41.057Z,7.37
2017-12-28T09:37:08.933Z,7.47
2017-12-28T09:39:36.578Z,7.23
2017-12-28T09:42:04.437Z,7.03
2017-12-28T09:44:31.970Z,7.20
2017-12-28T09:46:59.529Z,6.43
2017-12-28T09:49:27.041Z,7.60
2017-12-28T09:51:54.644Z,7.10
2017-12-28T09:54:22.919Z,6.20
2017-12-28T09:56:50.540Z,5.30
2017-12-28T09:59:18.049Z,6.50
2017-12-28T10:01:45.572Z,6.83
2017-12-28T10:04:13.121Z,6.60
2017-12-28T10:06:41.504Z,7.57
2017-12-28T10:09:09.071Z,6.53
2017-12-28T10:11:37.380Z,6.60
2017-12-28T10:14:05.012Z,6.93
2017-12-28T10:16:32.542Z,6.03
2017-12-28T10:19:00.049Z,7.03
2017-12-28T10:21:29.259Z,6.70
2017-12-28T10:23:56.780Z,6.37
2017-12-28T10:26:25.119Z,6.50
2017-12-28T10:28:52.627Z,6.40
2017-12-28T10:31:20.191Z,5.20
2017-12-28T10:33:47.728Z,6.20
2017-12-28T10:36:15.275Z,5.40
2017-12-28T10:38:43.593Z,5.87
2017-12-28T10:41:11.152Z,4.70
2017-12-28T10:43:38.679Z,5.70
2017-12-28T10:46:06.967Z,5.83
2017-12-28T10:48:35.296Z,5.60
2017-12-28T10:51:02.820Z,3.90
2017-12-28T10:53:30.375Z,3.77
2017-12-28T10:55:57.889Z,4.20
2017-12-28T10:58:25.462Z,4.63
2017-12-28T11:00:53.744Z,4.10
2017-12-28T11:03:22.064Z,5.90
2017-12-28T11:05:49.592Z,6.57
2017-12-28T11:08:17.144Z,7.50
2017-12-28T11:10:44.681Z,3.90
2017-12-28T11:13:12.219Z,4.90
2017-12-28T11:15:39.817Z,3.93
2017-12-28T11:18:07.378Z,4.23
2017-12-28T11:20:34.988Z,3.07
2017-12-28T11:23:02.549Z,5.20
2017-12-28T11:25:30.072Z,3.20
2017-12-28T11:27:57.622Z,3.67
2017-12-28T11:30:25.132Z,3.63
2017-12-28T11:32:52.707Z,4.27
2017-12-28T11:35:20.233Z,3.07
2017-12-28T11:37:47.832Z,3.53
2017-12-28T11:40:15.345Z,4.17
2017-12-28T11:42:42.873Z,3.23
2017-12-28T11:45:10.456Z,3.10
2017-12-28T11:47:38.757Z,3.07
2017-12-28T11:50:11.248Z,3.17
2017-12-28T11:52:42.755Z,3.07
2017-12-28T11:55:10.304Z,3.50
2017-12-28T11:57:37.873Z,4.30
2017-12-28T12:03:08.514Z,3.50
2017-12-28T12:05:41.792Z,3.17
2017-12-28T12:08:10.109Z,3.67
2017-12-28T12:10:52.284Z,3.23
2017-12-28T12:13:19.791Z,5.40
2017-12-28T12:15:47.361Z,2.90
2017-12-28T12:18:14.868Z,3.40
2017-12-28T12:20:42.382Z,4.40
2017-12-28T12:23:09.946Z,5.80
2017-12-28T12:25:37.483Z,4.87
2017-12-28T12:28:05.027Z,3.20
2017-12-28T12:30:32.544Z,3.53
2017-12-28T12:33:00.131Z,4.50
2017-12-28T12:35:27.676Z,4.27
2017-12-28T12:37:55.228Z,3.47
2017-12-28T12:40:22.738Z,3.60
2017-12-28T12:42:50.275Z,2.70
2017-12-28T12:45:18.560Z,3.03
2017-12-28T12:47:46.147Z,4.20
2017-12-28T12:50:13.651Z,6.27
2017-12-28T12:52:41.176Z,3.90
2017-12-28T12:55:08.731Z,4.30
2017-12-28T12:57:36.244Z,4.40
2017-12-28T13:00:03.789Z,3.77
2017-12-28T13:02:31.507Z,3.23
2017-12-28T13:04:59.059Z,3.00
2017-12-28T13:07:27.356Z,3.47
2017-12-28T13:09:54.900Z,3.80
2017-12-28T13:12:22.415Z,3.40
2017-12-28T13:14:50.705Z,3.30
2017-12-28T13:17:18.210Z,2.67
2017-12-28T13:19:45.725Z,3.90
2017-12-28T13:22:14.044Z,2.60
2017-12-28T13:24:41.575Z,3.80
2017-12-28T13:27:09.887Z,3.60
2017-12-28T13:29:37.432Z,3.10
2017-12-28T13:32:04.976Z,3.20
2017-12-28T13:34:32.489Z,3.97
2017-12-28T13:37:00.879Z,3.43
2017-12-28T13:39:30.165Z,3.50
2017-12-28T13:41:57.706Z,3.20
2017-12-28T13:44:25.242Z,3.17
2017-12-28T20:15:16.499Z,5.32
2017-12-28T20:17:44.085Z,5.37
2017-12-28T20:20:11.601Z,5.20
2017-12-28T20:22:39.173Z,4.40
2017-12-28T20:25:06.688Z,5.00
2017-12-28T20:27:34.265Z,5.13
2017-12-28T20:30:01.796Z,4.77
2017-12-28T20:32:29.432Z,5.07
2017-12-28T20:34:57.728Z,4.43
2017-12-28T20:37:26.066Z,4.53
2017-12-28T20:39:53.629Z,4.63
2017-12-28T20:42:21.149Z,5.03
2017-12-28T20:44:48.724Z,4.77
2017-12-28T20:47:16.249Z,5.10
2017-12-28T20:49:43.884Z,6.27
2017-12-28T20:52:12.236Z,4.70
2017-12-28T20:54:40.725Z,4.40
2017-12-28T20:57:08.301Z,4.70
2017-12-28T20:59:35.982Z,5.67
2017-12-28T21:02:04.043Z,4.30
2017-12-28T21:04:31.709Z,5.43
2017-12-28T21:06:59.310Z,5.23
2017-12-28T21:09:26.870Z,4.50
2017-12-28T21:11:54.484Z,4.27
2017-12-28T21:14:22.014Z,5.27
2017-12-28T21:16:49.617Z,4.20
2017-12-28T21:19:17.164Z,5.00
2017-12-28T21:21:44.694Z,4.27
2017-12-28T21:24:12.286Z,4.20
2017-12-28T21:26:40.076Z,4.43
2017-12-28T21:29:07.683Z,4.50
2017-12-28T21:31:36.051Z,3.93
2017-12-28T21:34:03.625Z,4.57
2017-12-28T21:36:31.164Z,3.73
2017-12-28T21:38:58.747Z,4.67
2017-12-28T21:41:26.281Z,3.50
2017-12-28T21:43:53.930Z,3.87
2017-12-28T21:46:21.500Z,4.40
2017-12-28T21:48:49.419Z,2.90
2017-12-28T21:51:17.057Z,3.07
2017-12-28T21:53:45.412Z,3.70
2017-12-28T21:56:12.990Z,3.60
2017-12-28T21:58:40.610Z,3.30
2017-12-28T22:01:08.140Z,3.97
2017-12-28T22:03:35.663Z,3.90
2017-12-28T22:06:03.247Z,3.53
2017-12-28T22:08:30.853Z,3.40
2017-12-28T22:10:58.412Z,4.67
2017-12-28T22:13:25.971Z,3.40
2017-12-28T22:15:53.550Z,3.70
2017-12-28T22:18:21.108Z,3.17
2017-12-28T22:20:48.700Z,3.87
2017-12-28T22:23:17.007Z,3.80
2017-12-28T22:25:44.568Z,4.17
2017-12-28T22:28:12.170Z,3.30
2017-12-28T22:30:39.745Z,4.33
2017-12-28T22:33:07.293Z,3.77
2017-12-28T22:35:34.813Z,4.37
2017-12-28T22:38:02.364Z,3.63
2017-12-28T22:40:30.004Z,3.17
2017-12-28T22:42:57.558Z,4.23
2017-12-28T22:45:25.935Z,4.27
2017-12-28T22:47:53.806Z,4.20
2017-12-28T22:50:21.340Z,4.83
2017-12-28T22:52:48.885Z,4.47
2017-12-28T22:55:16.444Z,4.73
2017-12-28T22:57:44.914Z,4.30
2017-12-28T23:00:16.272Z,5.10
2017-12-28T23:02:43.858Z,4.30
2017-12-28T23:05:11.411Z,5.33
2017-12-28T23:07:38.968Z,4.47
2017-12-28T23:10:06.650Z,3.60
2017-12-28T23:12:34.273Z,4.73
2017-12-28T23:15:02.600Z,3.47
2017-12-28T23:17:30.377Z,3.80
2017-12-28T23:19:57.997Z,3.90
2017-12-28T23:22:25.509Z,4.20
2017-12-28T23:24:53.033Z,3.73
2017-12-28T23:27:21.370Z,3.90
2017-12-28T23:29:48.901Z,4.00
2017-12-28T23:32:16.462Z,3.87
2017-12-28T23:34:45.192Z,3.60
2017-12-28T23:37:13.509Z,4.37
2017-12-28T23:39:41.021Z,3.93
2017-12-28T23:42:08.591Z,4.03
2017-12-28T23:44:36.588Z,3.83
2017-12-28T23:47:04.179Z,3.90
2017-12-28T23:49:32.480Z,3.70
2017-12-28T23:52:00.004Z,3.53
2017-12-28T23:54:27.560Z,3.80
2017-12-28T23:56:55.076Z,3.70
2017-12-28T23:59:22.642Z,3.60
